Omidiyeh, Iran
Current Conditions -  °F | °C
As of 1:00 PM on Sunday 23 Nov 2014 (Local Time) from OIAG Reporting Station
Scattered Clouds Scattered Clouds  
Wind Chill: 27°   Ceiling: Unl
Heat Index: 27°   Visibility: 6mi
Dew Point: 13°   Wind: 2mph
Humidity: 42%   Direction: 340°NNW
Pressure: 29.94"   Gusts: NA
Location:  30.75°N, 49.71°E
Report Text: OIAG 231000Z 34002KT 9999 SCT040 27/13 Q1014
Loading
Personal Weather Stations






























Interactive Weather Map New forecast layout! Learn more

10-Day Weather Forecast

Advertisements
Track Severe Weather on mobile